Aurora, Colorado
Current Conditions -  °F | °C
As of 12:58 AM on Friday 24 Oct 2014 (Local Time) from KBKF Reporting Station
Broken Clouds Broken Clouds  
Wind Chill: 13°   Ceiling: 22000
Heat Index: 13°   Visibility: 10mi
Dew Point: -1°   Wind: 13mph
Humidity: 39%   Direction: 180°S
Pressure: 30.15"   Gusts: NA
Location:  39.69°N, 104.86°W
Report Text: KBKF 240658Z 18011KT 10SM BKN220 13/M01 A3015 RMK AO2A SLP150 T01321007 402210051
Loading
Personal Weather Stations






























Interactive Weather Map
Tropical Storm Tracking
New forecast layout! Learn more

10-Day Weather Forecast

Advertisements
Track Severe Weather on mobile